Time;durP1;ratioP1;P1;durP2;ratioP2;P2;SDS_P1;SDS_P2;PMS_P1;PMS_P2;Temp;Humidity;BMP_temperature;BMP_pressure;BME280_temperature;BME280_humidity;BME280_pressure;Samples;Min_cycle;Max_cycle;Signal;HPM_P1;HPM_P2
2023/09/24 00:01:13;;;;;;;7.20;4.63;;;8.30;99.90;;;;;;5043356;28;20112;-57
2023/09/24 00:03:39;;;;;;;12.10;6.68;;;8.30;99.90;;;;;;5044026;28;20112;-55
2023/09/24 00:06:09;;;;;;;9.88;5.45;;;8.30;99.90;;;;;;5043466;28;20108;-58
2023/09/24 00:08:35;;;;;;;8.55;5.90;;;8.30;99.90;;;;;;5042048;28;20420;-58
2023/09/24 00:11:02;;;;;;;10.30;5.88;;;8.30;99.90;;;;;;5050159;28;20399;-60
2023/09/24 00:13:29;;;;;;;8.80;6.35;;;8.30;99.90;;;;;;5046028;28;20064;-56
2023/09/24 00:16:04;;;;;;;9.80;6.15;;;8.20;99.90;;;;;;5050462;28;20083;-55
2023/09/24 00:18:30;;;;;;;10.03;6.47;;;8.20;99.90;;;;;;5045347;28;20034;-58
2023/09/24 00:20:55;;;;;;;10.48;6.45;;;8.20;99.90;;;;;;5045578;28;20279;-57
2023/09/24 00:23:21;;;;;;;10.18;6.72;;;8.20;99.90;;;;;;5048258;28;20032;-60
2023/09/24 00:25:49;;;;;;;10.15;6.70;;;8.20;99.90;;;;;;5046026;28;20029;-58
2023/09/24 00:28:14;;;;;;;9.77;6.50;;;8.10;99.90;;;;;;5044080;28;20040;-58
2023/09/24 00:30:42;;;;;;;7.10;5.03;;;8.10;99.90;;;;;;5048180;28;20096;-56
2023/09/24 00:33:08;;;;;;;7.65;5.30;;;8.10;99.90;;;;;;5043502;28;20132;-58
2023/09/24 00:35:34;;;;;;;8.32;6.25;;;8.10;99.90;;;;;;5046743;28;20033;-57
2023/09/24 00:38:00;;;;;;;6.78;5.70;;;8.00;99.90;;;;;;5049348;28;20020;-61
2023/09/24 00:40:25;;;;;;;7.47;5.25;;;8.00;99.90;;;;;;5040124;28;20409;-58
2023/09/24 00:42:52;;;;;;;5.53;4.47;;;8.00;99.90;;;;;;5049348;28;20059;-58
2023/09/24 00:45:18;;;;;;;4.45;3.67;;;7.90;99.90;;;;;;5046789;28;20043;-58
2023/09/24 00:47:45;;;;;;;9.25;6.03;;;7.90;99.90;;;;;;5043901;28;20028;-57
2023/09/24 00:50:12;;;;;;;7.90;5.55;;;7.90;99.90;;;;;;5054898;28;20031;-58
2023/09/24 00:52:38;;;;;;;10.68;6.80;;;7.90;99.90;;;;;;5053738;28;20020;-58
2023/09/24 00:55:06;;;;;;;12.57;6.13;;;7.80;99.90;;;;;;5045620;28;20025;-58
2023/09/24 00:57:33;;;;;;;7.85;5.15;;;7.80;99.90;;;;;;5054200;28;20029;-58
2023/09/24 01:00:00;;;;;;;5.72;4.63;;;7.80;99.90;;;;;;5046203;28;20037;-57
2023/09/24 01:02:27;;;;;;;8.82;5.85;;;7.80;99.90;;;;;;5050762;28;20029;-58
2023/09/24 01:04:54;;;;;;;7.60;4.50;;;7.80;99.90;;;;;;5051287;28;20047;-55
2023/09/24 01:07:23;;;;;;;6.85;4.95;;;7.70;99.90;;;;;;5052660;28;20009;-57
2023/09/24 01:09:49;;;;;;;8.43;5.80;;;7.70;99.90;;;;;;5047593;28;20029;-57
2023/09/24 01:12:22;;;;;;;6.53;5.07;;;7.70;99.90;;;;;;5053285;28;20087;-57
2023/09/24 01:14:49;;;;;;;7.28;5.00;;;7.70;99.90;;;;;;5053340;28;20389;-60
2023/09/24 01:17:17;;;;;;;7.40;4.80;;;7.70;99.90;;;;;;5045828;28;20029;-57
2023/09/24 01:19:43;;;;;;;6.90;5.30;;;7.70;99.90;;;;;;5048088;28;20067;-57
2023/09/24 01:22:08;;;;;;;6.15;5.10;;;7.70;99.90;;;;;;5049709;28;20524;-59
2023/09/24 01:24:35;;;;;;;10.20;5.00;;;7.70;99.90;;;;;;5050208;28;20048;-57
2023/09/24 01:27:02;;;;;;;7.00;4.82;;;7.70;99.90;;;;;;5050362;28;20401;-57
2023/09/24 01:29:28;;;;;;;5.63;4.18;;;7.70;99.90;;;;;;5051215;28;20607;-58
2023/09/24 01:31:54;;;;;;;5.35;4.40;;;7.70;99.90;;;;;;5050111;28;20048;-57
2023/09/24 01:34:20;;;;;;;6.43;4.55;;;7.70;99.90;;;;;;5048499;28;20476;-57
2023/09/24 01:36:47;;;;;;;9.45;5.38;;;7.60;99.90;;;;;;5051552;28;20059;-58
2023/09/24 01:39:17;;;;;;;8.27;5.53;;;7.60;99.90;;;;;;5049999;28;20420;-59
2023/09/24 01:41:42;;;;;;;6.95;5.25;;;7.60;99.90;;;;;;5048915;28;20036;-58
2023/09/24 01:44:08;;;;;;;6.40;4.43;;;7.50;99.90;;;;;;5045255;28;20484;-57
2023/09/24 01:46:34;;;;;;;10.40;5.40;;;7.50;99.90;;;;;;5050621;28;20054;-56
2023/09/24 01:49:01;;;;;;;7.05;4.53;;;7.50;99.90;;;;;;5051811;28;20214;-58
2023/09/24 01:51:28;;;;;;;6.35;4.72;;;7.50;99.90;;;;;;5045175;28;20024;-58
2023/09/24 01:53:53;;;;;;;5.82;4.35;;;7.50;99.90;;;;;;5048099;28;20603;-55
2023/09/24 01:56:21;;;;;;;5.40;4.07;;;7.50;99.90;;;;;;5050057;28;20606;-54
2023/09/24 01:58:49;;;;;;;5.57;4.85;;;7.50;99.90;;;;;;5049465;28;20021;-55
2023/09/24 02:01:15;;;;;;;5.82;4.68;;;7.40;99.90;;;;;;5043238;28;20060;-59
2023/09/24 02:03:46;;;;;;;5.28;4.15;;;7.40;99.90;;;;;;5049644;28;20029;-58
2023/09/24 02:06:15;;;;;;;5.78;4.18;;;7.40;99.90;;;;;;5045192;28;20484;-60
2023/09/24 02:08:42;;;;;;;4.55;3.47;;;7.40;99.90;;;;;;5050161;28;20120;-56
2023/09/24 02:11:08;;;;;;;4.65;3.42;;;7.40;99.90;;;;;;5049950;28;22803;-57
2023/09/24 02:13:33;;;;;;;6.32;4.75;;;7.40;99.90;;;;;;5051805;28;20089;-58
2023/09/24 02:16:00;;;;;;;10.82;5.75;;;7.40;99.90;;;;;;5053343;28;20039;-57
2023/09/24 02:18:32;;;;;;;4.63;3.97;;;7.30;99.90;;;;;;5055155;28;20028;-57
2023/09/24 02:20:59;;;;;;;8.50;4.70;;;7.30;99.90;;;;;;5054681;28;20020;-60
2023/09/24 02:23:26;;;;;;;4.07;3.50;;;7.30;99.90;;;;;;5048152;28;20048;-59
2023/09/24 02:25:55;;;;;;;6.72;3.97;;;7.20;99.90;;;;;;5059097;28;20024;-58
2023/09/24 02:28:20;;;;;;;5.43;4.18;;;7.30;99.90;;;;;;5054332;28;20077;-59
2023/09/24 02:30:47;;;;;;;7.85;4.85;;;7.30;99.90;;;;;;5043602;28;20435;-57
2023/09/24 02:33:16;;;;;;;6.07;4.70;;;7.20;99.90;;;;;;5046673;28;20037;-58
2023/09/24 02:35:42;;;;;;;5.63;4.20;;;7.20;99.90;;;;;;5045315;28;20045;-56
2023/09/24 02:38:09;;;;;;;7.82;5.15;;;7.20;99.90;;;;;;5049345;28;20035;-60
2023/09/24 02:40:36;;;;;;;7.43;5.65;;;7.20;99.90;;;;;;5048865;28;20040;-60
2023/09/24 02:43:03;;;;;;;4.95;4.40;;;7.10;99.90;;;;;;5045690;28;20028;-58
2023/09/24 02:45:30;;;;;;;6.72;5.30;;;7.20;99.90;;;;;;5041411;28;20101;-57
2023/09/24 02:47:56;;;;;;;5.75;4.35;;;7.10;99.90;;;;;;5053568;28;20111;-57
2023/09/24 02:50:29;;;;;;;7.00;4.18;;;7.10;99.90;;;;;;5051573;28;20021;-58
2023/09/24 02:52:58;;;;;;;9.43;4.82;;;7.10;99.90;;;;;;5048448;28;20054;-57
2023/09/24 02:55:27;;;;;;;4.65;3.63;;;7.10;99.90;;;;;;5047545;28;20063;-56
2023/09/24 02:57:52;;;;;;;7.18;4.50;;;7.10;99.90;;;;;;5050130;28;20036;-59
2023/09/24 03:00:26;;;;;;;7.50;4.07;;;7.10;99.90;;;;;;5045745;28;20033;-57
2023/09/24 03:02:57;;;;;;;5.57;4.00;;;7.10;99.90;;;;;;5030873;28;20044;-57
2023/09/24 03:05:28;;;;;;;6.22;4.47;;;7.00;99.90;;;;;;5047258;28;20908;-60
2023/09/24 03:07:56;;;;;;;5.85;4.03;;;7.00;99.90;;;;;;5048485;28;20029;-59
2023/09/24 03:10:22;;;;;;;6.80;5.20;;;7.00;99.90;;;;;;5048659;28;20049;-59
2023/09/24 03:12:49;;;;;;;9.25;4.85;;;7.00;99.90;;;;;;5048102;28;20094;-58
2023/09/24 03:15:16;;;;;;;7.20;5.38;;;7.00;99.90;;;;;;5052468;28;20029;-59
2023/09/24 03:17:44;;;;;;;5.53;4.32;;;7.00;99.90;;;;;;5052481;28;20392;-59
2023/09/24 03:20:19;;;;;;;10.15;4.95;;;7.00;99.90;;;;;;5050752;28;20075;-58
2023/09/24 03:23:02;;;;;;;7.38;4.78;;;7.00;99.90;;;;;;5047556;28;20067;-58
2023/09/24 03:25:28;;;;;;;7.10;5.28;;;7.10;99.90;;;;;;5046258;28;20526;-59
2023/09/24 03:27:56;;;;;;;8.55;5.78;;;7.10;99.90;;;;;;5042915;28;20039;-57
2023/09/24 03:30:23;;;;;;;7.40;5.60;;;7.10;99.90;;;;;;5038725;28;20025;-59
2023/09/24 03:32:53;;;;;;;7.53;5.30;;;7.10;99.90;;;;;;5046290;28;20507;-58
2023/09/24 03:35:24;;;;;;;5.05;4.50;;;7.20;99.90;;;;;;5047769;28;20396;-59
2023/09/24 03:37:51;;;;;;;7.18;5.25;;;7.30;99.90;;;;;;5044400;28;20027;-59
2023/09/24 03:40:23;;;;;;;7.88;5.35;;;7.50;99.90;;;;;;5046234;28;20400;-58
2023/09/24 03:42:48;;;;;;;5.00;4.50;;;7.60;99.90;;;;;;5047605;28;20025;-58
2023/09/24 03:45:16;;;;;;;10.63;5.20;;;7.70;99.90;;;;;;5052723;28;20031;-59
2023/09/24 03:47:42;;;;;;;10.55;5.90;;;7.80;99.90;;;;;;5047297;28;20768;-59
2023/09/24 03:50:16;;;;;;;4.85;3.97;;;7.90;99.90;;;;;;5047552;28;20038;-59
2023/09/24 03:52:50;;;;;;;6.25;4.25;;;8.00;99.90;;;;;;5050621;28;20032;-59
2023/09/24 03:55:17;;;;;;;5.70;4.55;;;8.00;99.90;;;;;;5049549;28;20051;-59
2023/09/24 03:57:43;;;;;;;6.88;4.50;;;8.10;99.90;;;;;;5055268;28;20078;-59
2023/09/24 04:00:13;;;;;;;6.85;5.10;;;8.20;99.90;;;;;;5056724;28;20025;-58
2023/09/24 04:02:39;;;;;;;6.75;5.15;;;8.30;99.90;;;;;;5053800;28;20641;-58
2023/09/24 04:05:14;;;;;;;6.72;4.85;;;8.40;99.90;;;;;;5058746;28;20093;-59
2023/09/24 04:07:40;;;;;;;3.60;3.20;;;8.50;99.90;;;;;;5047492;28;20596;-55
2023/09/24 04:10:09;;;;;;;6.97;4.38;;;8.50;99.90;;;;;;5056366;28;20025;-58
2023/09/24 04:12:35;;;;;;;5.55;4.72;;;8.70;99.90;;;;;;5055729;28;20078;-58
2023/09/24 04:15:04;;;;;;;4.50;3.78;;;8.70;99.90;;;;;;5053354;28;20029;-58
2023/09/24 04:17:31;;;;;;;5.07;3.78;;;8.80;99.90;;;;;;5053518;28;20085;-58
2023/09/24 04:19:59;;;;;;;5.95;3.55;;;8.90;99.90;;;;;;5057530;28;20029;-58
2023/09/24 04:22:25;;;;;;;6.47;4.07;;;9.00;99.90;;;;;;5052448;28;20017;-56
2023/09/24 04:24:51;;;;;;;5.55;3.88;;;9.10;99.90;;;;;;5052960;28;20086;-58
2023/09/24 04:27:17;;;;;;;6.60;4.30;;;9.10;99.90;;;;;;5051330;28;20197;-57
2023/09/24 04:29:43;;;;;;;4.53;3.55;;;9.20;99.90;;;;;;5048838;28;20107;-60
2023/09/24 04:32:09;;;;;;;6.22;4.05;;;9.30;99.90;;;;;;5050283;28;20044;-60
2023/09/24 04:34:37;;;;;;;5.35;4.63;;;9.40;99.90;;;;;;5053191;28;20020;-59
2023/09/24 04:37:03;;;;;;;4.38;3.05;;;9.50;99.90;;;;;;5047830;28;20088;-59
2023/09/24 04:39:30;;;;;;;5.75;3.42;;;9.50;99.90;;;;;;5049814;28;20032;-58
2023/09/24 04:41:56;;;;;;;4.43;3.33;;;9.60;99.90;;;;;;5057007;28;20040;-58
2023/09/24 04:44:21;;;;;;;6.30;3.60;;;9.60;99.90;;;;;;5050317;28;20029;-60
2023/09/24 04:46:48;;;;;;;5.70;4.05;;;9.70;99.90;;;;;;5050570;28;20034;-56
2023/09/24 04:49:13;;;;;;;4.97;3.70;;;9.80;99.90;;;;;;5046729;28;20049;-49
2023/09/24 04:51:40;;;;;;;5.88;3.33;;;9.80;99.90;;;;;;5054138;28;20055;-53
2023/09/24 04:54:06;;;;;;;3.53;3.22;;;9.90;99.90;;;;;;5051134;28;20024;-48
2023/09/24 04:56:31;;;;;;;3.88;3.55;;;9.90;99.90;;;;;;5051629;28;20016;-46
2023/09/24 04:58:57;;;;;;;4.15;3.10;;;10.00;99.90;;;;;;5050125;28;20123;-44
2023/09/24 05:01:23;;;;;;;5.47;3.83;;;10.00;99.90;;;;;;5053104;28;20028;-44
2023/09/24 05:03:50;;;;;;;3.08;2.78;;;10.10;99.90;;;;;;5046697;28;20044;-44
2023/09/24 05:06:16;;;;;;;3.05;2.75;;;10.20;99.90;;;;;;5048389;28;20652;-48
2023/09/24 05:08:43;;;;;;;4.82;3.95;;;10.20;99.90;;;;;;5049170;28;20036;-47
2023/09/24 05:11:12;;;;;;;4.32;3.20;;;10.30;99.90;;;;;;5045088;28;20028;-47
2023/09/24 05:13:38;;;;;;;4.57;4.10;;;10.30;99.90;;;;;;5049478;28;20089;-46
2023/09/24 05:16:03;;;;;;;9.88;3.85;;;10.40;99.90;;;;;;5049277;28;20032;-44
2023/09/24 05:18:31;;;;;;;3.97;3.42;;;10.40;99.90;;;;;;5053429;28;20037;-46
2023/09/24 05:20:56;;;;;;;4.38;3.95;;;10.40;99.90;;;;;;5050511;28;20029;-47
2023/09/24 05:23:22;;;;;;;4.22;3.47;;;10.50;99.90;;;;;;5046898;28;20033;-50
2023/09/24 05:25:51;;;;;;;8.25;4.35;;;10.60;99.90;;;;;;5052251;28;20060;-43
2023/09/24 05:28:20;;;;;;;7.13;4.03;;;10.60;99.90;;;;;;5046535;28;20098;-45
2023/09/24 05:30:54;;;;;;;5.78;3.95;;;10.70;99.90;;;;;;5043512;28;20052;-45
2023/09/24 05:33:20;;;;;;;4.60;3.47;;;10.70;99.90;;;;;;5048984;28;20568;-48
2023/09/24 05:35:51;;;;;;;4.88;3.80;;;10.80;99.90;;;;;;5052552;28;20021;-44
2023/09/24 05:38:16;;;;;;;5.57;4.43;;;10.80;99.90;;;;;;5047753;28;20036;-44
2023/09/24 05:40:42;;;;;;;5.07;3.90;;;10.90;99.90;;;;;;5055157;28;20029;-43
2023/09/24 05:43:08;;;;;;;4.68;3.72;;;11.00;99.90;;;;;;5045268;28;20037;-45
2023/09/24 05:45:33;;;;;;;4.40;3.03;;;11.00;99.90;;;;;;5045377;28;20179;-44
2023/09/24 05:47:59;;;;;;;4.03;3.17;;;11.00;99.90;;;;;;5037029;28;20688;-46
2023/09/24 05:50:24;;;;;;;5.93;4.07;;;11.10;99.90;;;;;;5043924;28;20025;-50
2023/09/24 05:52:50;;;;;;;5.68;4.80;;;11.20;99.90;;;;;;5047644;28;20518;-44
2023/09/24 05:55:15;;;;;;;5.45;3.92;;;11.30;99.90;;;;;;5049107;28;20107;-44
2023/09/24 05:57:41;;;;;;;4.35;3.53;;;11.30;99.90;;;;;;5051066;28;20044;-47
2023/09/24 06:00:08;;;;;;;4.88;3.97;;;11.40;99.90;;;;;;5051018;28;20576;-47
2023/09/24 06:02:34;;;;;;;5.30;3.83;;;11.50;99.90;;;;;;5045540;28;20643;-45
2023/09/24 06:04:59;;;;;;;11.38;8.25;;;11.50;99.90;;;;;;5048699;28;20028;-46
2023/09/24 06:07:28;;;;;;;13.63;8.40;;;11.60;99.90;;;;;;5042871;28;20107;-45
2023/09/24 06:09:54;;;;;;;10.82;7.20;;;11.70;99.90;;;;;;5046920;28;20028;-45
2023/09/24 06:12:21;;;;;;;10.15;7.32;;;11.70;99.90;;;;;;5041529;28;20112;-44
2023/09/24 06:14:47;;;;;;;11.40;7.53;;;11.80;99.90;;;;;;5054789;28;20587;-46
2023/09/24 06:17:13;;;;;;;7.68;5.90;;;11.90;99.90;;;;;;5051553;28;20130;-44
2023/09/24 06:19:38;;;;;;;7.20;5.88;;;12.00;99.90;;;;;;5057719;28;20028;-46
2023/09/24 06:22:03;;;;;;;10.02;7.43;;;12.10;99.90;;;;;;5045313;28;20082;-47
2023/09/24 06:24:29;;;;;;;9.98;7.18;;;12.20;99.90;;;;;;5051343;28;20040;-46
2023/09/24 06:26:55;;;;;;;10.05;7.78;;;12.30;99.90;;;;;;5052555;28;20027;-46
2023/09/24 06:29:21;;;;;;;9.95;8.20;;;12.40;99.90;;;;;;5044634;28;20447;-46
2023/09/24 06:31:47;;;;;;;12.57;9.15;;;12.40;99.90;;;;;;5043543;28;20528;-44
2023/09/24 06:34:13;;;;;;;10.00;7.40;;;12.50;99.90;;;;;;5046169;28;20060;-46
2023/09/24 06:36:38;;;;;;;12.50;8.55;;;12.60;99.90;;;;;;5044528;28;20491;-45
2023/09/24 06:39:09;;;;;;;12.57;8.80;;;12.70;99.90;;;;;;5046841;28;20082;-46
2023/09/24 06:41:35;;;;;;;10.77;7.53;;;12.70;99.90;;;;;;5044090;28;20090;-44
2023/09/24 06:44:01;;;;;;;11.27;8.45;;;12.80;99.90;;;;;;5045659;28;20033;-46
2023/09/24 06:46:26;;;;;;;12.30;8.35;;;12.80;99.90;;;;;;5042539;28;20115;-44
2023/09/24 06:48:52;;;;;;;7.70;6.32;;;12.90;99.90;;;;;;5042282;28;20029;-47
2023/09/24 06:51:17;;;;;;;8.57;6.03;;;12.90;99.90;;;;;;5048272;28;20041;-48
2023/09/24 06:53:43;;;;;;;9.48;7.00;;;13.10;99.90;;;;;;5051700;28;20032;-47
2023/09/24 06:56:09;;;;;;;9.88;6.20;;;13.10;99.90;;;;;;5049519;28;20138;-44
2023/09/24 06:58:35;;;;;;;10.32;6.75;;;13.10;99.90;;;;;;5045342;28;20071;-48
2023/09/24 07:01:03;;;;;;;11.02;8.10;;;13.20;99.90;;;;;;5040884;28;20039;-47
2023/09/24 07:03:29;;;;;;;10.93;6.65;;;13.20;99.90;;;;;;5038222;28;20059;-44
2023/09/24 07:05:55;;;;;;;9.93;6.38;;;13.20;99.90;;;;;;5045472;28;20040;-44
2023/09/24 07:08:20;;;;;;;7.45;5.88;;;13.30;99.90;;;;;;5045985;28;20519;-45
2023/09/24 07:11:13;;;;;;;7.55;5.93;;;13.30;99.90;;;;;;5050625;28;20052;-44
2023/09/24 07:13:38;;;;;;;8.30;5.75;;;13.40;99.90;;;;;;5045835;28;20044;-45
2023/09/24 07:16:05;;;;;;;7.50;5.70;;;13.50;99.90;;;;;;5044770;28;20025;-43
2023/09/24 07:18:31;;;;;;;7.18;5.45;;;13.60;99.90;;;;;;5043267;28;20040;-42
2023/09/24 07:20:56;;;;;;;7.80;6.00;;;13.70;99.90;;;;;;5045474;28;20036;-43
2023/09/24 07:23:22;;;;;;;6.20;4.90;;;13.70;99.90;;;;;;5043911;28;20409;-46
2023/09/24 07:25:47;;;;;;;7.80;5.43;;;13.80;99.90;;;;;;5053323;28;20036;-43
2023/09/24 07:28:13;;;;;;;9.70;6.32;;;13.80;99.90;;;;;;5051821;28;20036;-46
2023/09/24 07:30:39;;;;;;;7.85;5.60;;;13.80;99.90;;;;;;5053278;28;20428;-43
2023/09/24 07:33:04;;;;;;;6.75;5.00;;;13.80;99.90;;;;;;5054629;28;20156;-43
2023/09/24 07:35:30;;;;;;;8.10;5.88;;;13.80;99.90;;;;;;5052493;28;20043;-43
2023/09/24 07:37:55;;;;;;;6.40;5.05;;;13.90;99.90;;;;;;5054626;28;20032;-45
2023/09/24 07:40:21;;;;;;;6.15;5.55;;;13.90;99.90;;;;;;5045726;28;20029;-46
2023/09/24 07:42:46;;;;;;;7.03;5.05;;;14.00;99.90;;;;;;5048794;28;20177;-45
2023/09/24 07:45:13;;;;;;;7.60;4.95;;;14.00;99.90;;;;;;5049635;28;20112;-45
2023/09/24 07:47:39;;;;;;;7.82;4.93;;;14.10;99.90;;;;;;5048079;28;20025;-45
2023/09/24 07:50:05;;;;;;;9.15;5.75;;;14.20;99.90;;;;;;5050919;28;20028;-45
2023/09/24 07:52:31;;;;;;;7.50;5.53;;;14.20;99.90;;;;;;5051448;28;20028;-46
2023/09/24 07:54:56;;;;;;;8.35;5.57;;;14.30;99.90;;;;;;5054198;28;20012;-44
2023/09/24 07:57:22;;;;;;;9.45;5.78;;;14.30;99.90;;;;;;5045106;28;20032;-43
2023/09/24 07:59:47;;;;;;;7.15;4.47;;;14.30;99.90;;;;;;5044665;28;20036;-43
2023/09/24 08:02:13;;;;;;;7.28;4.82;;;14.40;99.90;;;;;;5045254;28;20032;-45
2023/09/24 08:04:39;;;;;;;7.32;5.07;;;14.40;99.90;;;;;;5049294;28;20056;-44
2023/09/24 08:07:04;;;;;;;7.22;4.50;;;14.40;99.90;;;;;;5046445;28;20048;-43
2023/09/24 08:09:30;;;;;;;4.43;3.80;;;14.40;99.90;;;;;;5052963;28;20037;-44
2023/09/24 08:11:55;;;;;;;5.45;4.10;;;14.50;99.90;;;;;;5051297;28;20029;-44
2023/09/24 08:14:21;;;;;;;5.38;4.22;;;14.50;99.90;;;;;;5051580;28;20025;-47
2023/09/24 08:16:46;;;;;;;5.55;3.60;;;14.60;99.90;;;;;;5050763;28;20025;-47
2023/09/24 08:19:12;;;;;;;3.72;3.30;;;14.70;99.90;;;;;;5044406;28;20048;-44
2023/09/24 08:21:38;;;;;;;4.72;3.58;;;14.80;99.90;;;;;;5049785;28;20106;-44
2023/09/24 08:24:04;;;;;;;5.00;3.78;;;15.00;99.90;;;;;;5046820;28;20826;-44
2023/09/24 08:26:29;;;;;;;6.75;3.20;;;15.00;99.90;;;;;;5046266;28;20033;-45
2023/09/24 08:28:54;;;;;;;5.38;3.70;;;15.20;99.90;;;;;;5045941;28;20029;-44
2023/09/24 08:31:20;;;;;;;6.38;4.00;;;15.30;99.90;;;;;;5051863;28;20107;-44
2023/09/24 08:33:46;;;;;;;4.78;3.90;;;15.30;99.90;;;;;;5051234;28;20432;-43
2023/09/24 08:36:12;;;;;;;4.45;2.80;;;15.40;99.90;;;;;;5050239;28;20052;-43
2023/09/24 08:38:37;;;;;;;3.55;2.95;;;15.60;99.90;;;;;;5048480;28;20060;-43
2023/09/24 08:41:11;;;;;;;5.13;3.15;;;15.70;99.90;;;;;;5052235;28;20031;-44
2023/09/24 08:43:38;;;;;;;3.25;2.95;;;15.80;98.70;;;;;;5045017;28;20048;-46
2023/09/24 08:46:04;;;;;;;4.40;2.72;;;15.90;99.60;;;;;;5045815;28;20523;-44
2023/09/24 08:48:31;;;;;;;2.72;2.50;;;16.00;99.80;;;;;;5043348;28;20802;-47
2023/09/24 08:50:57;;;;;;;2.95;2.45;;;16.10;99.10;;;;;;5055295;28;20036;-50
2023/09/24 08:53:27;;;;;;;2.70;2.47;;;16.30;98.80;;;;;;5046092;28;20544;-45
2023/09/24 08:55:53;;;;;;;4.90;2.50;;;16.60;98.00;;;;;;5047114;28;20083;-45
2023/09/24 08:58:18;;;;;;;3.75;2.40;;;16.90;98.50;;;;;;5050760;28;20029;-46
2023/09/24 09:00:44;;;;;;;5.55;2.70;;;17.10;97.10;;;;;;5047105;28;20028;-46
2023/09/24 09:03:09;;;;;;;2.40;2.20;;;17.30;94.00;;;;;;5043378;28;20070;-46
2023/09/24 09:05:37;;;;;;;3.30;2.47;;;17.40;95.80;;;;;;5042185;28;20508;-46
2023/09/24 09:08:04;;;;;;;5.05;2.42;;;17.50;95.50;;;;;;5049690;28;20043;-46
2023/09/24 09:10:32;;;;;;;3.72;2.25;;;17.70;95.50;;;;;;5046641;28;20025;-45
2023/09/24 09:13:27;;;;;;;3.15;2.38;;;17.80;95.20;;;;;;5052598;28;20087;-46
2023/09/24 09:16:14;;;;;;;3.00;2.28;;;17.90;91.60;;;;;;5031297;28;20041;-44
2023/09/24 09:18:42;;;;;;;2.85;1.88;;;18.10;94.10;;;;;;5052508;28;20076;-47
2023/09/24 09:21:10;;;;;;;4.38;2.30;;;18.20;93.60;;;;;;5052079;28;20083;-45
2023/09/24 09:23:38;;;;;;;4.55;2.35;;;18.30;92.40;;;;;;5041936;28;20049;-44
2023/09/24 09:26:04;;;;;;;3.85;2.55;;;18.20;91.00;;;;;;5048769;28;20051;-45
2023/09/24 09:28:31;;;;;;;5.03;2.42;;;18.00;90.30;;;;;;5054447;28;20033;-43
2023/09/24 09:31:01;;;;;;;2.40;2.20;;;18.00;90.30;;;;;;5052871;28;20341;-45
2023/09/24 09:33:31;;;;;;;3.35;2.15;;;18.00;92.60;;;;;;5055383;28;20087;-44
2023/09/24 09:35:57;;;;;;;2.08;1.60;;;18.30;92.70;;;;;;5046102;28;20086;-46
2023/09/24 09:38:24;;;;;;;2.50;1.50;;;18.80;92.20;;;;;;5048460;28;20025;-46
2023/09/24 09:40:55;;;;;;;1.65;1.55;;;19.30;91.10;;;;;;5047415;28;20024;-44
2023/09/24 09:43:29;;;;;;;2.13;1.55;;;19.50;85.20;;;;;;5044286;28;20082;-46
2023/09/24 09:45:57;;;;;;;2.00;1.50;;;19.70;89.00;;;;;;5043898;28;20032;-44
2023/09/24 09:48:33;;;;;;;2.72;1.70;;;19.80;89.30;;;;;;5049887;28;20017;-44
2023/09/24 09:51:03;;;;;;;;;;;19.90;88.20;;;;;;5046244;28;20028;-42
2023/09/24 09:53:34;;;;;;;3.55;1.50;;;19.90;76.70;;;;;;5050172;28;19940;-45
2023/09/24 09:56:04;;;;;;;5.85;1.90;;;20.00;89.90;;;;;;5048428;28;20072;-47
2023/09/24 09:58:36;;;;;;;1.83;1.60;;;19.90;72.60;;;;;;5049904;28;20020;-45
2023/09/24 10:01:04;;;;;;;1.88;1.50;;;19.50;81.50;;;;;;5044453;28;20025;-45
2023/09/24 10:03:34;;;;;;;1.80;1.40;;;19.40;89.40;;;;;;5047423;28;20561;-45
2023/09/24 10:06:01;;;;;;;2.63;1.13;;;19.50;88.50;;;;;;5048238;28;20036;-44
2023/09/24 10:08:47;;;;;;;3.15;1.40;;;19.60;89.10;;;;;;5049793;28;20097;-48
2023/09/24 10:11:31;;;;;;;1.73;1.60;;;19.90;85.30;;;;;;5042147;28;20017;-44
2023/09/24 10:14:02;;;;;;;2.78;1.33;;;20.00;76.50;;;;;;5050108;28;20662;-45
2023/09/24 10:16:41;;;;;;;2.35;1.70;;;20.00;83.00;;;;;;5042421;28;20378;-45
2023/09/24 10:19:12;;;;;;;1.63;1.52;;;20.00;81.40;;;;;;5043545;28;20030;-43
2023/09/24 10:21:45;;;;;;;3.03;1.60;;;20.00;78.50;;;;;;5048154;28;20100;-43
2023/09/24 10:24:14;;;;;;;3.60;1.77;;;20.00;78.40;;;;;;5051113;28;20020;-44
2023/09/24 10:27:05;;;;;;;1.95;1.20;;;19.90;74.90;;;;;;5054743;28;20100;-45
2023/09/24 10:29:45;;;;;;;1.95;1.20;;;19.70;74.10;;;;;;5049624;28;20025;-48
2023/09/24 10:32:22;;;;;;;2.22;1.10;;;19.70;75.10;;;;;;5045389;28;20049;-44
2023/09/24 10:34:59;;;;;;;1.38;1.00;;;19.60;76.20;;;;;;5046169;28;20069;-45
2023/09/24 10:37:26;;;;;;;2.22;1.38;;;19.60;75.70;;;;;;5047824;28;20032;-45
2023/09/24 10:42:26;;;;;;;1.27;1.05;;;19.40;75.70;;;;;;5051622;28;20033;-47
2023/09/24 10:45:07;;;;;;;1.80;1.30;;;19.40;76.00;;;;;;5050332;28;20180;-44
2023/09/24 10:47:38;;;;;;;4.13;1.08;;;19.40;74.70;;;;;;5042693;28;20028;-47
2023/09/24 10:50:17;;;;;;;4.53;1.40;;;19.50;74.70;;;;;;5047736;28;20025;-45
2023/09/24 10:52:58;;;;;;;2.92;1.27;;;19.40;72.70;;;;;;5040772;28;20034;-50
2023/09/24 10:55:29;;;;;;;2.53;0.98;;;19.40;74.00;;;;;;5035587;28;20033;-59
2023/09/24 10:58:19;;;;;;;1.63;1.20;;;19.40;73.70;;;;;;5046693;28;20025;-60
2023/09/24 11:00:52;;;;;;;1.25;1.15;;;19.40;73.50;;;;;;5041239;28;20562;-59
2023/09/24 11:03:17;;;;;;;2.60;0.95;;;19.40;73.00;;;;;;5044516;28;20783;-58
2023/09/24 11:05:45;;;;;;;2.10;1.35;;;19.40;73.70;;;;;;5046247;28;20072;-60
2023/09/24 11:08:13;;;;;;;2.78;0.95;;;19.40;72.10;;;;;;5052530;28;20021;-58
2023/09/24 11:10:40;;;;;;;3.53;1.27;;;19.20;71.30;;;;;;5047190;28;20025;-61
2023/09/24 11:13:07;;;;;;;3.80;1.08;;;18.90;68.40;;;;;;5048717;28;20082;-60
2023/09/24 11:15:38;;;;;;;1.33;0.90;;;18.50;70.00;;;;;;5046664;28;20506;-60
2023/09/24 11:18:04;;;;;;;2.70;1.30;;;18.40;69.60;;;;;;5050677;28;20658;-60
2023/09/24 11:20:32;;;;;;;1.70;1.15;;;18.20;70.80;;;;;;5049204;28;20032;-62
2023/09/24 11:23:11;;;;;;;1.70;1.00;;;18.10;71.90;;;;;;5044230;28;20135;-62
2023/09/24 11:25:38;;;;;;;2.75;0.95;;;18.10;71.90;;;;;;5045021;28;20111;-61
2023/09/24 11:28:05;;;;;;;1.80;0.80;;;18.30;72.30;;;;;;5043524;28;20048;-59
2023/09/24 11:30:42;;;;;;;1.00;0.70;;;18.40;71.80;;;;;;5046982;28;20079;-59
2023/09/24 11:33:16;;;;;;;2.10;0.85;;;18.60;71.00;;;;;;5045350;28;20202;-61
2023/09/24 11:35:45;;;;;;;2.90;0.85;;;18.70;70.70;;;;;;5050330;28;20480;-59
2023/09/24 11:38:11;;;;;;;1.55;0.63;;;18.70;69.90;;;;;;5042451;28;20111;-60
2023/09/24 11:40:39;;;;;;;0.65;0.52;;;18.70;69.80;;;;;;5043693;28;20120;-60
2023/09/24 11:43:10;;;;;;;1.20;0.70;;;18.70;69.40;;;;;;5042030;28;20032;-60
2023/09/24 11:45:38;;;;;;;1.02;0.77;;;18.70;69.50;;;;;;5047974;28;20036;-61
2023/09/24 11:48:05;;;;;;;2.15;0.90;;;18.60;67.40;;;;;;5044320;28;20037;-60
2023/09/24 11:50:30;;;;;;;1.25;0.93;;;18.50;68.40;;;;;;5046235;28;20104;-60
2023/09/24 11:52:56;;;;;;;3.00;1.00;;;18.40;68.80;;;;;;5047609;28;20111;-60
2023/09/24 11:55:21;;;;;;;2.28;1.00;;;18.30;64.40;;;;;;5048789;28;20025;-60
2023/09/24 11:57:47;;;;;;;2.10;0.93;;;18.20;65.70;;;;;;5042970;28;20635;-61
2023/09/24 12:00:13;;;;;;;2.35;0.93;;;18.10;66.80;;;;;;5047190;28;20513;-61
2023/09/24 12:02:39;;;;;;;1.98;0.90;;;18.20;67.70;;;;;;5048972;28;20337;-61
2023/09/24 12:05:05;;;;;;;1.80;0.85;;;18.30;68.10;;;;;;5035813;28;20667;-60
2023/09/24 12:07:33;;;;;;;2.72;0.77;;;18.50;68.30;;;;;;5051323;28;20389;-58
2023/09/24 12:09:59;;;;;;;1.48;1.05;;;18.60;66.10;;;;;;5052020;28;20036;-58
2023/09/24 12:12:25;;;;;;;2.20;0.93;;;18.50;66.90;;;;;;5044316;28;20035;-57
2023/09/24 12:14:51;;;;;;;2.28;0.90;;;18.50;63.80;;;;;;5047597;28;20777;-59
2023/09/24 12:17:25;;;;;;;1.50;0.77;;;18.40;65.20;;;;;;5054388;28;20035;-61
2023/09/24 12:19:52;;;;;;;0.85;0.80;;;18.40;66.00;;;;;;5049649;28;20569;-59
2023/09/24 12:22:18;;;;;;;2.95;0.60;;;18.50;64.80;;;;;;5047412;28;20049;-59
2023/09/24 12:24:44;;;;;;;1.73;0.80;;;18.50;64.60;;;;;;5053298;28;20078;-59
2023/09/24 12:27:09;;;;;;;1.08;0.50;;;18.60;65.00;;;;;;5045232;28;20033;-59
2023/09/24 12:29:35;;;;;;;1.35;0.50;;;18.70;63.00;;;;;;5043572;28;20020;-58
2023/09/24 12:32:00;;;;;;;0.90;0.52;;;18.80;63.30;;;;;;5046268;28;20037;-59
2023/09/24 12:34:26;;;;;;;1.77;0.63;;;19.00;62.60;;;;;;5056356;28;20532;-59
2023/09/24 12:36:51;;;;;;;0.93;0.73;;;19.20;62.00;;;;;;5043899;28;20094;-60
2023/09/24 12:39:20;;;;;;;1.15;0.63;;;19.30;62.60;;;;;;5051667;28;20096;-60
2023/09/24 12:41:49;;;;;;;2.45;0.70;;;19.40;62.50;;;;;;5054600;28;20167;-61
2023/09/24 12:44:17;;;;;;;1.08;0.80;;;19.40;62.40;;;;;;5046412;28;20052;-59
2023/09/24 12:46:43;;;;;;;1.50;0.75;;;19.50;61.70;;;;;;5050255;28;20035;-59
2023/09/24 12:49:09;;;;;;;0.88;0.57;;;19.60;62.00;;;;;;5046901;28;20037;-61
2023/09/24 12:51:35;;;;;;;2.15;0.80;;;19.80;62.30;;;;;;5056076;28;20108;-59
2023/09/24 12:54:02;;;;;;;1.98;0.80;;;19.80;61.30;;;;;;5052416;28;20108;-61
2023/09/24 12:56:28;;;;;;;2.15;0.80;;;19.90;61.70;;;;;;5052550;28;20032;-60